This is the latest recevied weather packets stored in our database for station/object KD0RII. If no packets are shown the sender has not sent any weather packets the latest 10 day(s).
| Time | Temp. | Humidity | Pressure | Rain* | Wind** | Luminosity | Snow |
|---|---|---|---|---|---|---|---|
| 1777398216 | 13.33° C | 72% | 1017.5 hPa | 0 mm | - | 356 W/m² | - |
| 1777397913 | 13.33° C | 71% | 1017.4 hPa | 0 mm | - | 394 W/m² | - |
| 1777397608 | 13.33° C | 71% | 1017.6 hPa | 0 mm | - | 468 W/m² | - |
| 1777397305 | 13.33° C | 70% | 1017.5 hPa | 0 mm | - | 254 W/m² | - |
| 1777397001 | 13.89° C | 70% | 1017.4 hPa | 0 mm | - | 328 W/m² | - |
| 1777396698 | 14.44° C | 67% | 1017.2 hPa | 0 mm | - | 538 W/m² | - |
| 1777396395 | 13.33° C | 71% | 1017.5 hPa | 0 mm | - | 708 W/m² | - |
| 1777396091 | 13.33° C | 71% | 1017.9 hPa | 0 mm | - | 278 W/m² | - |
| 1777395787 | 12.78° C | 72% | 1017.7 hPa | 0 mm | - | 295 W/m² | - |
| 1777395482 | 12.78° C | 72% | 1017.9 hPa | 0 mm | - | 835 W/m² | - |
| 1777395179 | 12.78° C | 72% | 1018 hPa | 0 mm | - | 256 W/m² | - |
| 1777394876 | 12.22° C | 73% | 1018.3 hPa | 0 mm | - | 314 W/m² | - |
| 1777394572 | 11.67° C | 73% | 1018.6 hPa | 0 mm | - | 197 W/m² | - |
| 1777394269 | 11.67° C | 73% | 1018.6 hPa | 0 mm | - | 239 W/m² | - |
| 1777393966 | 11.67° C | 74% | 1018.8 hPa | 0 mm | - | 178 W/m² | - |
| 1777393664 | 11.67° C | 74% | 1018.2 hPa | 0 mm | - | 189 W/m² | - |
| 1777393360 | 11.67° C | 74% | 1018.3 hPa | 0 mm | - | 213 W/m² | - |
| 1777393057 | 11.67° C | 74% | 1018.3 hPa | 0 mm | - | 222 W/m² | - |
| 1777392753 | 11.67° C | 74% | 1018.3 hPa | 0 mm | - | 206 W/m² | - |
| 1777392449 | 11.67° C | 73% | 1018.6 hPa | 0 mm | - | 130 W/m² | - |
| 1777392145 | 11.67° C | 75% | 1018 hPa | 0 mm | - | 355 W/m² | - |
| 1777391840 | 11.67° C | 75% | 1017.8 hPa | 0 mm | - | 591 W/m² | - |
| 1777391536 | 11.67° C | 74% | 1018.2 hPa | 0 mm | - | 207 W/m² | - |
| 1777391227 | 11.11° C | 76% | 1018.2 hPa | 0 mm | - | 223 W/m² | - |
| 1777390924 | 11.67° C | 73% | 1018.4 hPa | 0 mm | - | 307 W/m² | - |
* Rain latest hour (hover to see other rain measurements)
** Current wind speed in m/s (hover to see current wind gust speed)